Time;durP1;ratioP1;P1;durP2;ratioP2;P2;SDS_P1;SDS_P2;PMS_P1;PMS_P2;Temp;Humidity;BMP_temperature;BMP_pressure;BME280_temperature;BME280_humidity;BME280_pressure;Samples;Min_cycle;Max_cycle;Signal;HPM_P1;HPM_P2
2021/04/20 00:01:27;;;;;;;31.70;16.70;;;;;;;6.08;85.92;101162.90;115714;1212;63329;-78
2021/04/20 00:03:54;;;;;;;28.80;17.00;;;;;;;6.06;86.39;101156.11;115748;1209;62530;-79
2021/04/20 00:06:21;;;;;;;30.30;15.97;;;;;;;6.04;86.42;101153.59;115858;1209;62338;-78
2021/04/20 00:08:47;;;;;;;32.87;16.20;;;;;;;6.03;86.30;101151.09;115832;1209;62468;-78
2021/04/20 00:11:14;;;;;;;35.00;16.87;;;;;;;6.00;86.69;101148.73;115684;1209;62176;-78
2021/04/20 00:13:41;;;;;;;31.00;17.60;;;;;;;5.95;86.52;101143.88;115772;1209;62600;-78
2021/04/20 00:16:07;;;;;;;33.90;16.90;;;;;;;5.91;86.34;101148.53;115764;1209;64524;-79
2021/04/20 00:18:34;;;;;;;32.43;17.60;;;;;;;5.87;85.96;101138.41;115789;1209;62296;-79
2021/04/20 00:21:00;;;;;;;30.10;16.65;;;;;;;5.81;85.96;101139.77;115567;1212;62418;-78
2021/04/20 00:23:27;;;;;;;34.67;17.60;;;;;;;5.76;86.59;101135.85;115810;1209;62323;-78
2021/04/20 00:25:54;;;;;;;33.30;19.60;;;;;;;5.70;87.13;101131.97;115783;1209;62248;-77
2021/04/20 00:28:26;;;;;;;29.90;16.27;;;;;;;5.66;87.43;101130.56;115663;1211;62333;-79
2021/04/20 00:30:53;;;;;;;34.75;16.80;;;;;;;5.63;86.81;101133.45;115738;1209;62444;-77
2021/04/20 00:33:21;;;;;;;42.40;19.70;;;;;;;5.62;87.67;101132.62;115739;1209;63236;-77
2021/04/20 00:35:48;;;;;;;35.53;18.60;;;;;;;5.62;87.35;101132.62;115667;1210;62889;-77
2021/04/20 00:38:14;;;;;;;33.40;18.43;;;;;;;5.62;87.67;101131.80;115814;1209;64127;-78
2021/04/20 00:40:41;;;;;;;31.73;18.23;;;;;;;5.60;87.87;101129.28;115816;1209;62281;-77
2021/04/20 00:43:08;;;;;;;31.50;17.83;;;;;;;5.59;87.73;101125.00;115793;1209;62992;-78
2021/04/20 00:45:37;;;;;;;31.45;17.55;;;;;;;5.58;87.67;101119.86;115779;1209;62352;-78
2021/04/20 00:48:04;;;;;;;34.67;17.83;;;;;;;5.56;88.04;101127.05;115766;1209;62518;-77
2021/04/20 00:50:34;;;;;;;30.40;17.20;;;;;;;5.53;88.41;101119.44;115676;1209;62935;-77
2021/04/20 00:53:01;;;;;;;33.07;18.83;;;;;;;5.51;88.02;101116.93;115811;1212;62360;-78
2021/04/20 00:55:27;;;;;;;39.35;20.25;;;;;;;5.50;88.32;101109.98;115550;1212;62509;-78
2021/04/20 00:57:54;;;;;;;35.27;18.20;;;;;;;5.50;87.99;101117.88;115770;1212;64311;-78
2021/04/20 01:00:24;;;;;;;35.83;18.77;;;;;;;5.50;87.81;101107.34;115532;1209;63275;-78
2021/04/20 01:02:51;;;;;;;33.73;18.10;;;;;;;5.50;88.47;101117.88;115758;1209;62359;-77
2021/04/20 01:05:45;;;;;;;32.53;17.20;;;;;;;5.51;88.52;101122.19;115567;1209;62536;-78
2021/04/20 01:08:15;;;;;;;36.65;18.70;;;;;;;5.54;88.95;101113.19;115755;1209;63009;-79
2021/04/20 01:11:01;;;;;;;31.05;15.90;;;;;;;5.57;89.18;101113.77;115557;1212;63026;-79
2021/04/20 01:13:33;;;;;;;30.87;18.00;;;;;;;5.54;88.89;101123.72;115755;1211;62655;-79
2021/04/20 01:15:59;;;;;;;34.70;19.65;;;;;;;5.50;88.65;101113.47;115569;1212;62272;-79
2021/04/20 01:18:28;;;;;;;30.03;17.03;;;;;;;5.47;88.75;101105.00;115799;1212;63542;-79
2021/04/20 01:21:02;;;;;;;40.57;18.83;;;;;;;5.45;88.57;101120.08;115798;1209;62159;-79
2021/04/20 01:23:40;;;;;;;34.60;19.10;;;;;;;5.43;88.87;101116.75;115812;1209;63134;-78
2021/04/20 01:26:08;;;;;;;31.37;17.87;;;;;;;5.41;88.87;101116.04;115696;1209;62390;-78
2021/04/20 01:28:36;;;;;;;35.63;18.57;;;;;;;5.39;89.31;101107.45;115777;1209;62371;-79
2021/04/20 01:31:05;;;;;;;35.97;17.77;;;;;;;5.38;88.81;101114.52;115841;1209;62343;-78
2021/04/20 01:33:32;;;;;;;35.95;17.45;;;;;;;5.36;89.29;101112.98;115800;1209;63317;-77
2021/04/20 01:35:59;;;;;;;33.27;17.30;;;;;;;5.31;89.20;101106.31;115836;1209;62874;-78
2021/04/20 01:38:29;;;;;;;31.90;17.70;;;;;;;5.28;88.74;101103.10;115777;1212;62420;-78
2021/04/20 01:40:56;;;;;;;38.77;19.30;;;;;;;5.26;89.59;101094.50;115717;1209;62372;-77
2021/04/20 01:43:23;;;;;;;35.10;18.75;;;;;;;5.25;88.84;101098.11;115740;1209;62610;-77
2021/04/20 01:45:49;;;;;;;36.83;20.00;;;;;;;5.24;88.84;101099.89;115751;1209;62410;-77
2021/04/20 01:48:16;;;;;;;37.80;19.30;;;;;;;5.21;89.06;101102.80;115127;1209;62868;-76
2021/04/20 01:50:43;;;;;;;36.73;18.40;;;;;;;5.21;89.10;101102.80;115133;1211;62886;-78
2021/04/20 01:53:10;;;;;;;31.90;17.57;;;;;;;5.21;89.73;101100.16;115739;1211;62508;-76
2021/04/20 01:55:38;;;;;;;32.60;17.80;;;;;;;5.18;89.14;101095.14;115835;1209;62576;-76
2021/04/20 01:58:06;;;;;;;36.03;18.33;;;;;;;5.18;89.89;101097.77;115805;1212;62354;-77
2021/04/20 02:00:34;;;;;;;28.33;16.40;;;;;;;5.20;89.92;101101.11;115761;1209;62146;-76
2021/04/20 02:03:01;;;;;;;34.97;17.40;;;;;;;5.19;89.99;101109.98;115760;1209;63224;-77
2021/04/20 02:05:27;;;;;;;40.10;19.70;;;;;;;5.20;89.22;101105.55;115770;1209;63238;-78
2021/04/20 02:07:55;;;;;;;35.70;18.47;;;;;;;5.18;89.22;101105.66;115783;1209;62399;-77
2021/04/20 02:10:21;;;;;;;35.20;19.47;;;;;;;5.18;90.02;101107.47;115783;1209;62721;-78
2021/04/20 02:12:48;;;;;;;33.00;16.83;;;;;;;5.18;88.86;101107.47;115737;1212;62948;-78
2021/04/20 02:15:16;;;;;;;31.40;18.93;;;;;;;5.17;89.60;101101.38;115802;1212;62230;-78
2021/04/20 02:17:44;;;;;;;34.20;18.65;;;;;;;5.16;90.18;101099.70;115769;1212;62613;-77
2021/04/20 02:20:13;;;;;;;32.57;17.63;;;;;;;5.14;89.22;101100.80;115781;1209;62369;-77
2021/04/20 02:22:42;;;;;;;30.37;15.40;;;;;;;5.09;88.99;101095.94;115773;1211;62341;-77
2021/04/20 02:25:12;;;;;;;29.87;17.40;;;;;;;5.04;88.35;101092.87;115816;1209;62446;-77
2021/04/20 02:27:39;;;;;;;30.07;16.30;;;;;;;5.01;88.59;101093.11;115772;1210;62304;-76
2021/04/20 02:30:09;;;;;;;32.93;18.37;;;;;;;4.97;87.88;101094.33;115785;1211;62953;-76
2021/04/20 02:32:39;;;;;;;30.43;17.37;;;;;;;4.88;87.93;101093.30;115737;1212;62902;-76
2021/04/20 02:35:09;;;;;;;31.93;18.57;;;;;;;4.81;88.57;101100.88;115803;1209;62275;-76
2021/04/20 02:37:38;;;;;;;31.53;15.70;;;;;;;4.79;89.14;101094.91;115531;1211;63691;-76
2021/04/20 02:40:06;;;;;;;29.10;15.60;;;;;;;4.78;89.32;101097.66;115781;1211;62603;-76
2021/04/20 02:42:34;;;;;;;28.63;16.17;;;;;;;4.76;88.78;101092.55;115808;1209;63583;-75
2021/04/20 02:45:01;;;;;;;31.53;16.97;;;;;;;4.74;88.50;101104.98;115840;1209;62602;-76
2021/04/20 02:47:29;;;;;;;28.23;16.73;;;;;;;4.69;89.25;101096.63;115847;1209;62432;-75
2021/04/20 02:49:56;;;;;;;29.80;16.73;;;;;;;4.63;89.12;101103.24;115736;1209;62525;-75
2021/04/20 02:52:25;;;;;;;34.75;17.20;;;;;;;4.60;88.49;101103.48;115739;1209;62374;-75
2021/04/20 02:54:52;;;;;;;31.37;17.53;;;;;;;4.58;88.42;101099.31;115828;1209;63425;-75
2021/04/20 02:57:19;;;;;;;36.00;17.25;;;;;;;4.52;88.47;101090.13;115783;1209;62274;-75
2021/04/20 02:59:46;;;;;;;31.20;17.17;;;;;;;4.49;88.58;101091.22;115736;1209;62268;-76
2021/04/20 03:02:14;;;;;;;32.60;16.33;;;;;;;4.46;89.19;101096.73;115781;1209;64236;-75
2021/04/20 03:04:41;;;;;;;27.15;15.75;;;;;;;4.43;88.89;101096.14;115795;1209;62223;-76
2021/04/20 03:07:07;;;;;;;28.70;16.53;;;;;;;4.39;89.48;101100.80;115806;1209;62115;-76
2021/04/20 03:09:35;;;;;;;32.73;17.53;;;;;;;4.35;89.36;101094.13;115814;1209;63131;-75
2021/04/20 03:12:02;;;;;;;33.83;17.40;;;;;;;4.31;89.09;101097.97;115786;1209;62359;-76
2021/04/20 03:14:29;;;;;;;32.83;16.43;;;;;;;4.26;89.09;101092.27;115774;1209;63400;-74
2021/04/20 03:16:56;;;;;;;34.67;17.83;;;;;;;4.21;88.89;101089.19;115658;1212;62987;-75
2021/04/20 03:19:23;;;;;;;35.07;16.47;;;;;;;4.18;88.60;101086.79;115734;1209;63225;-76
2021/04/20 03:21:51;;;;;;;30.00;16.23;;;;;;;4.16;88.96;101079.03;115507;1211;62388;-77
2021/04/20 03:24:30;;;;;;;30.73;17.07;;;;;;;4.12;88.79;101088.11;115690;1209;62388;-76
2021/04/20 03:26:57;;;;;;;33.03;18.60;;;;;;;4.08;88.80;101092.80;115754;1209;62878;-76
2021/04/20 03:29:24;;;;;;;29.60;15.83;;;;;;;4.05;89.67;101089.56;115717;1212;62624;-76
2021/04/20 03:31:51;;;;;;;37.90;16.90;;;;;;;4.02;89.18;101095.08;115743;1209;62299;-75
2021/04/20 03:34:34;;;;;;;31.00;16.50;;;;;;;3.97;89.87;101090.17;115732;1209;62635;-76
2021/04/20 03:37:05;;;;;;;37.90;17.23;;;;;;;3.94;89.64;101090.42;115711;1208;62619;-77
2021/04/20 03:39:38;;;;;;;34.60;17.53;;;;;;;3.89;88.84;101092.59;115791;1209;63156;-76
2021/04/20 03:42:08;;;;;;;26.55;15.15;;;;;;;3.84;88.94;101089.48;115754;1209;62423;-76
2021/04/20 03:44:41;;;;;;;28.00;14.80;;;;;;;3.81;89.54;101085.31;115754;1209;63256;-75
2021/04/20 03:47:15;;;;;;;26.37;14.60;;;;;;;3.80;89.71;101093.30;115764;1209;63437;-76
2021/04/20 03:49:44;;;;;;;29.75;14.73;;;;;;;3.78;89.52;101090.83;115741;1209;62901;-77
2021/04/20 03:52:23;;;;;;;24.40;13.83;;;;;;;3.77;90.10;101096.19;115744;1209;62372;-77
2021/04/20 03:54:53;;;;;;;27.43;14.70;;;;;;;3.78;90.29;101087.34;115804;1210;62886;-76
2021/04/20 03:57:22;;;;;;;24.13;13.13;;;;;;;3.77;89.91;101093.56;115768;1209;63158;-76
2021/04/20 03:59:51;;;;;;;25.60;14.37;;;;;;;3.73;89.93;101082.46;115744;1209;62439;-77
2021/04/20 04:02:19;;;;;;;27.20;14.63;;;;;;;3.72;89.90;101082.57;115702;1209;63166;-77
2021/04/20 04:04:49;;;;;;;28.30;13.73;;;;;;;3.70;89.51;101084.48;115733;1209;62967;-76
2021/04/20 04:07:19;;;;;;;24.47;12.93;;;;;;;3.70;89.51;101089.73;115686;1209;62387;-77
2021/04/20 04:09:50;;;;;;;21.30;12.93;;;;;;;3.67;89.71;101085.56;115558;1209;62385;-77
2021/04/20 04:12:18;;;;;;;20.77;12.13;;;;;;;3.65;89.50;101093.55;115630;1209;62478;-76
2021/04/20 04:14:47;;;;;;;24.10;14.73;;;;;;;3.66;90.25;101092.61;115718;1209;64266;-75
2021/04/20 04:17:18;;;;;;;22.17;11.80;;;;;;;3.63;89.82;101092.00;115720;1209;62572;-75
2021/04/20 04:19:47;;;;;;;23.47;11.60;;;;;;;3.56;89.56;101086.41;115731;1209;62296;-75
2021/04/20 04:22:19;;;;;;;25.17;12.50;;;;;;;3.52;89.75;101090.22;115908;1209;62310;-75
2021/04/20 04:24:55;;;;;;;22.43;12.20;;;;;;;3.50;89.42;101092.13;115751;1209;63437;-76
2021/04/20 04:27:28;;;;;;;20.37;12.23;;;;;;;3.53;89.98;101091.05;115670;1209;63925;-75
2021/04/20 04:29:59;;;;;;;23.13;11.37;;;;;;;3.53;89.48;101093.67;115734;1209;63039;-76
2021/04/20 04:32:31;;;;;;;22.00;10.60;;;;;;;3.51;89.56;101093.81;115773;1209;62725;-76
2021/04/20 04:34:58;;;;;;;19.50;11.23;;;;;;;3.49;89.60;101090.47;115685;1209;63647;-76
2021/04/20 04:37:25;;;;;;;24.60;11.50;;;;;;;3.47;89.77;101090.58;115744;1209;62315;-77
2021/04/20 04:39:52;;;;;;;18.50;9.47;;;;;;;3.46;89.33;101085.45;115761;1209;62425;-77
2021/04/20 04:42:19;;;;;;;22.00;11.95;;;;;;;3.48;89.71;101086.16;115737;1209;63961;-76
2021/04/20 04:44:48;;;;;;;23.37;10.87;;;;;;;3.51;89.74;101083.32;115753;1209;62576;-77
2021/04/20 04:47:15;;;;;;;17.43;10.17;;;;;;;3.55;89.16;101084.75;115788;1209;62427;-77
2021/04/20 04:49:44;;;;;;;22.73;10.53;;;;;;;3.63;89.70;101084.13;115704;1209;62416;-75
2021/04/20 04:52:13;;;;;;;17.17;10.70;;;;;;;3.68;89.94;101084.63;115757;1209;62262;-75
2021/04/20 04:54:42;;;;;;;16.27;10.50;;;;;;;3.74;89.59;101088.53;115592;1209;62976;-75
2021/04/20 04:57:12;;;;;;;17.27;9.30;;;;;;;3.80;89.50;101088.88;115779;1209;62261;-77
2021/04/20 04:59:41;;;;;;;14.70;8.53;;;;;;;3.85;89.13;101085.92;115814;1209;62497;-76
2021/04/20 05:02:11;;;;;;;18.85;8.95;;;;;;;3.90;88.50;101083.75;115813;1209;63374;-75
2021/04/20 05:04:39;;;;;;;15.37;9.23;;;;;;;3.96;88.34;101083.27;115779;1209;62541;-76
2021/04/20 05:07:06;;;;;;;14.77;7.83;;;;;;;4.01;87.79;101094.22;115776;1209;62413;-76
2021/04/20 05:09:33;;;;;;;13.97;8.03;;;;;;;4.03;87.28;101083.60;115792;1209;62652;-77
2021/04/20 05:12:00;;;;;;;14.45;7.35;;;;;;;4.05;86.89;101092.20;115752;1209;62282;-76
2021/04/20 05:14:27;;;;;;;16.53;9.30;;;;;;;4.08;87.42;101090.17;115790;1209;62656;-76
2021/04/20 05:16:54;;;;;;;14.40;7.65;;;;;;;4.15;87.56;101087.88;115757;1211;62663;-76
2021/04/20 05:19:42;;;;;;;15.90;7.50;;;;;;;4.21;87.41;101086.56;115753;1209;62863;-75
2021/04/20 05:22:11;;;;;;;14.50;8.57;;;;;;;4.29;86.88;101084.13;115773;1212;62927;-75
2021/04/20 05:24:39;;;;;;;19.57;7.87;;;;;;;4.37;87.24;101078.26;115778;1209;62429;-75
2021/04/20 05:27:07;;;;;;;15.10;7.40;;;;;;;4.47;86.67;101087.89;115755;1209;62451;-74
2021/04/20 05:29:34;;;;;;;14.20;7.15;;;;;;;4.57;86.81;101081.86;115759;1209;63038;-75
2021/04/20 05:32:12;;;;;;;17.05;8.00;;;;;;;4.68;87.36;101080.03;115301;1209;62393;-75
2021/04/20 05:34:49;;;;;;;20.20;8.63;;;;;;;4.79;87.23;101081.77;114999;1210;64161;-75
2021/04/20 05:37:29;;;;;;;16.33;7.43;;;;;;;4.92;86.80;101086.01;114370;1209;64426;-76
2021/04/20 05:40:12;;;;;;;16.80;7.60;;;;;;;5.02;86.74;101077.22;115104;1212;62063;-77
2021/04/20 05:42:40;;;;;;;20.07;7.97;;;;;;;5.11;86.36;101086.12;115858;1209;64495;-76
2021/04/20 05:45:09;;;;;;;21.57;11.20;;;;;;;5.20;86.00;101084.50;115735;1209;62808;-76
2021/04/20 05:47:55;;;;;;;28.05;9.40;;;;;;;5.26;85.03;101081.36;115801;1209;62579;-76
2021/04/20 05:50:24;;;;;;;25.47;10.17;;;;;;;5.35;84.83;101084.99;115832;1209;62500;-76
2021/04/20 05:52:51;;;;;;;25.80;9.40;;;;;;;5.41;84.89;101081.84;115772;1209;62180;-76
2021/04/20 05:55:18;;;;;;;20.25;8.55;;;;;;;5.48;85.31;101072.44;115737;1209;62275;-76
2021/04/20 05:57:46;;;;;;;17.27;6.47;;;;;;;5.54;84.50;101082.44;115720;1212;63170;-76
2021/04/20 06:00:14;;;;;;;15.13;5.80;;;;;;;5.57;84.32;101082.19;115852;1209;62487;-76
2021/04/20 06:02:42;;;;;;;17.27;8.30;;;;;;;5.63;84.34;101081.66;115765;1209;62426;-77
2021/04/20 06:05:21;;;;;;;10.85;6.40;;;;;;;5.70;84.75;101085.42;115719;1209;62716;-77
2021/04/20 06:07:51;;;;;;;23.63;7.77;;;;;;;5.82;83.83;101085.30;115715;1209;62367;-78
2021/04/20 06:10:18;;;;;;;14.20;6.00;;;;;;;5.93;83.31;101088.67;115667;1209;64693;-75
2021/04/20 06:12:46;;;;;;;21.30;7.20;;;;;;;6.08;83.87;101086.52;115598;1209;62607;-75
2021/04/20 06:15:20;;;;;;;18.40;6.25;;;;;;;6.23;83.15;101092.23;115921;1209;62732;-75
2021/04/20 06:17:47;;;;;;;16.97;5.90;;;;;;;6.33;82.03;101089.58;115519;1212;62479;-75
2021/04/20 06:20:16;;;;;;;18.45;6.60;;;;;;;6.42;82.64;101088.78;115791;1211;62562;-75
2021/04/20 06:22:46;;;;;;;20.00;8.15;;;;;;;6.54;82.66;101092.09;115715;1211;62199;-77
2021/04/20 06:25:16;;;;;;;18.67;7.23;;;;;;;6.64;81.96;101092.10;115858;1209;62354;-76
2021/04/20 06:27:44;;;;;;;18.03;8.23;;;;;;;6.69;81.62;101100.41;115874;1211;63030;-77
2021/04/20 06:30:12;;;;;;;19.83;7.00;;;;;;;6.77;80.78;101092.64;115849;1210;62215;-76
2021/04/20 06:32:39;;;;;;;11.70;5.20;;;;;;;6.84;79.91;101096.40;115804;1209;62199;-77
2021/04/20 06:35:11;;;;;;;8.57;3.97;;;;;;;6.87;77.50;101097.91;115891;1209;63008;-75
2021/04/20 06:37:42;;;;;;;10.35;4.05;;;;;;;6.88;77.54;101089.84;115866;1208;62256;-75
2021/04/20 06:40:15;;;;;;;6.47;3.70;;;;;;;6.95;78.10;101087.50;115883;1209;62298;-75
2021/04/20 06:42:55;;;;;;;17.57;6.00;;;;;;;7.01;77.11;101086.91;115788;1209;62234;-76
2021/04/20 06:45:30;;;;;;;7.70;4.30;;;;;;;7.13;77.46;101087.59;115726;1211;62457;-77
2021/04/20 06:48:06;;;;;;;8.15;3.90;;;;;;;7.23;77.37;101088.40;115878;1209;63134;-76
2021/04/20 06:50:37;;;;;;;11.73;5.23;;;;;;;7.40;77.01;101094.73;115797;1209;62400;-76
2021/04/20 06:53:08;;;;;;;14.37;5.47;;;;;;;7.56;76.41;101094.10;115862;1209;64229;-76
2021/04/20 06:55:47;;;;;;;9.43;4.33;;;;;;;7.67;76.15;101091.30;115872;1209;62284;-77
2021/04/20 06:58:21;;;;;;;10.60;4.43;;;;;;;7.76;75.96;101087.77;115853;1209;62176;-79
2021/04/20 07:00:56;;;;;;;13.60;5.00;;;;;;;7.86;75.31;101087.73;115859;1211;62916;-76
2021/04/20 07:03:36;;;;;;;13.00;5.43;;;;;;;7.97;75.87;101081.41;115855;1209;62335;-75
2021/04/20 07:06:30;;;;;;;13.40;5.85;;;;;;;8.03;75.25;101075.50;115823;1209;62263;-77
2021/04/20 07:09:02;;;;;;;22.03;6.50;;;;;;;8.16;75.61;101070.70;115854;1209;62427;-78
2021/04/20 07:11:32;;;;;;;16.30;6.63;;;;;;;8.28;75.69;101078.41;115886;1209;62542;-76
2021/04/20 07:14:02;;;;;;;14.60;6.63;;;;;;;8.35;74.60;101060.95;115827;1211;63120;-77
2021/04/20 07:16:29;;;;;;;21.60;6.17;;;;;;;8.44;74.94;101061.91;115862;1209;62265;-77
2021/04/20 07:19:24;;;;;;;13.27;5.07;;;;;;;8.55;74.65;101067.78;115857;1212;62329;-76
2021/04/20 07:22:18;;;;;;;16.00;5.20;;;;;;;8.65;72.60;101065.06;115690;1209;62443;-75
2021/04/20 07:25:16;;;;;;;14.07;5.70;;;;;;;8.78;70.92;101059.38;115913;1212;62139;-75
2021/04/20 07:28:02;;;;;;;9.90;4.90;;;;;;;8.89;70.31;101051.17;115880;1210;63695;-75
2021/04/20 07:30:40;;;;;;;9.70;3.73;;;;;;;9.02;68.60;101061.34;115843;1211;62761;-75
2021/04/20 07:33:16;;;;;;;10.93;3.93;;;;;;;9.14;67.49;101054.81;115888;1209;62103;-76
2021/04/20 07:36:03;;;;;;;9.13;3.63;;;;;;;9.28;69.07;101056.03;115813;1209;62358;-76
2021/04/20 07:38:37;;;;;;;8.77;3.80;;;;;;;9.42;67.71;101056.45;115899;1209;62204;-77
2021/04/20 07:41:23;;;;;;;;;;;;;;;9.57;66.49;101050.38;115866;1216;63343;-78
2021/04/20 07:44:13;;;;;;;6.73;4.40;;;;;;;9.71;66.48;101050.75;115838;1209;62371;-78
2021/04/20 07:46:50;;;;;;;11.10;3.70;;;;;;;9.84;65.27;101055.59;115897;1209;62331;-78
2021/04/20 07:49:38;;;;;;;8.17;4.20;;;;;;;10.00;64.45;101055.64;115807;1209;62944;-77
2021/04/20 07:52:10;;;;;;;8.97;3.07;;;;;;;10.15;62.88;101054.01;115648;1209;62865;-78
2021/04/20 07:54:44;;;;;;;7.10;2.90;;;;;;;10.29;63.00;101055.23;115815;1209;62914;-80
2021/04/20 07:57:28;;;;;;;13.30;3.63;;;;;;;10.42;63.13;101048.63;115866;1209;64269;-79
2021/04/20 08:00:15;;;;;;;11.35;6.00;;;;;;;10.59;62.33;101053.75;115769;1212;62270;-79
2021/04/20 08:02:58;;;;;;;12.70;4.37;;;;;;;10.66;61.69;101051.25;115875;1209;62354;-79
2021/04/20 08:05:49;;;;;;;5.87;2.93;;;;;;;10.77;59.58;101047.43;115865;1212;62374;-78
2021/04/20 08:08:38;;;;;;;5.27;3.30;;;;;;;10.87;59.92;101045.44;115857;1209;62193;-78
2021/04/20 08:11:22;;;;;;;8.00;3.83;;;;;;;11.00;59.68;101040.42;115821;1209;62540;-80
2021/04/20 08:14:01;;;;;;;7.37;3.67;;;;;;;11.08;60.15;101041.42;115877;1209;62196;-76
2021/04/20 08:16:58;;;;;;;10.87;3.70;;;;;;;11.16;59.34;101036.09;115773;1209;63047;-77
2021/04/20 08:19:33;;;;;;;8.90;2.90;;;;;;;11.27;59.49;101033.06;115491;1209;64394;-78
2021/04/20 08:22:02;;;;;;;4.30;2.30;;;;;;;11.38;59.20;101035.34;115881;1209;62983;-78
2021/04/20 08:24:40;;;;;;;7.10;3.10;;;;;;;11.48;58.05;101040.46;115824;1212;62399;-78
2021/04/20 08:27:20;;;;;;;7.10;3.85;;;;;;;11.61;58.76;101045.22;115840;1209;62285;-79
2021/04/20 08:29:52;;;;;;;9.20;3.60;;;;;;;11.72;57.39;101036.03;115867;1209;62367;-78
2021/04/20 08:32:23;;;;;;;10.17;3.43;;;;;;;11.79;57.79;101032.52;115912;1209;62365;-77
2021/04/20 08:34:59;;;;;;;8.87;3.50;;;;;;;11.83;57.41;101036.45;115906;1212;62342;-76
2021/04/20 08:38:02;;;;;;;11.23;4.00;;;;;;;11.91;57.83;101032.14;115764;1209;62205;-77
2021/04/20 08:41:07;;;;;;;8.30;3.60;;;;;;;11.97;57.43;101034.10;115727;1212;62121;-76
2021/04/20 08:43:45;;;;;;;4.20;2.75;;;;;;;12.06;57.83;101033.03;115875;1209;62366;-76
2021/04/20 08:46:13;;;;;;;6.27;3.50;;;;;;;12.16;57.29;101022.18;115841;1209;62498;-76
2021/04/20 08:49:16;;;;;;;8.77;4.43;;;;;;;12.22;57.83;101027.61;115844;1209;64279;-75
2021/04/20 08:51:55;;;;;;;4.75;3.00;;;;;;;12.29;57.21;101021.59;115800;1212;62409;-79
2021/04/20 08:54:47;;;;;;;8.27;3.47;;;;;;;12.37;56.46;101024.19;115825;1209;62405;-79
2021/04/20 08:57:51;;;;;;;7.70;3.97;;;;;;;12.45;57.69;101018.77;115811;1209;63946;-80
2021/04/20 09:00:58;;;;;;;4.80;2.68;;;;;;;12.61;56.69;101026.63;115864;1212;62469;-78
2021/04/20 09:03:46;;;;;;;8.95;4.25;;;;;;;12.76;57.00;101017.84;115859;1212;62842;-79
2021/04/20 09:06:28;;;;;;;6.97;3.67;;;;;;;12.90;56.91;101021.52;115858;1209;62269;-79
2021/04/20 09:09:06;;;;;;;11.35;4.00;;;;;;;12.99;56.14;101013.28;115924;1209;62444;-78
2021/04/20 09:11:44;;;;;;;11.43;4.17;;;;;;;13.12;56.18;101014.48;115854;1212;63004;-78
2021/04/20 09:14:20;;;;;;;8.77;4.40;;;;;;;13.17;55.77;101015.56;115829;1209;62222;-79
2021/04/20 09:17:01;;;;;;;10.87;4.53;;;;;;;13.23;54.81;101014.01;115886;1211;63331;-79
2021/04/20 09:19:37;;;;;;;12.87;5.23;;;;;;;13.22;55.27;101012.38;115856;1209;62164;-79
2021/04/20 09:22:08;;;;;;;9.23;3.63;;;;;;;13.24;55.50;101016.50;115877;1209;62460;-78
2021/04/20 09:24:41;;;;;;;10.10;3.90;;;;;;;13.28;55.15;101019.59;115890;1212;62195;-79
2021/04/20 09:27:16;;;;;;;5.60;3.35;;;;;;;13.35;55.14;101012.56;115839;1209;62364;-78
2021/04/20 09:29:49;;;;;;;8.47;4.07;;;;;;;13.46;54.18;101021.92;115904;1209;62938;-79
2021/04/20 09:32:34;;;;;;;14.05;5.75;;;;;;;13.56;54.98;101010.98;115855;1212;64060;-78
2021/04/20 09:35:04;;;;;;;11.40;4.20;;;;;;;13.71;54.99;101017.11;115790;1209;62724;-78
2021/04/20 09:37:33;;;;;;;8.07;3.40;;;;;;;13.83;54.83;101010.28;115852;1209;62148;-76
2021/04/20 09:40:04;;;;;;;10.13;3.90;;;;;;;13.95;54.93;101013.26;115905;1209;62133;-76
2021/04/20 09:42:31;;;;;;;6.13;2.87;;;;;;;14.05;54.20;101013.78;115881;1209;62847;-77
2021/04/20 09:45:13;;;;;;;13.13;4.60;;;;;;;14.07;53.16;101017.08;115821;1211;64217;-78
2021/04/20 09:48:10;;;;;;;7.60;3.63;;;;;;;14.12;53.15;101011.17;115899;1209;62247;-77
2021/04/20 09:50:58;;;;;;;5.20;3.70;;;;;;;14.29;53.24;101009.07;115887;1209;63141;-78
2021/04/20 09:53:37;;;;;;;8.60;4.60;;;;;;;14.40;53.33;101010.39;115788;1209;62237;-78
2021/04/20 09:56:26;;;;;;;5.93;3.00;;;;;;;14.50;51.13;101010.08;115875;1209;62921;-77
2021/04/20 09:58:54;;;;;;;8.80;2.90;;;;;;;14.52;51.11;101003.52;115795;1208;62212;-77
2021/04/20 10:01:42;;;;;;;10.10;4.80;;;;;;;14.55;51.98;101005.82;115805;1212;62433;-77
2021/04/20 10:04:14;;;;;;;8.03;3.90;;;;;;;14.62;51.82;101009.39;115877;1210;62384;-79
2021/04/20 10:06:49;;;;;;;8.90;3.40;;;;;;;14.72;50.72;101013.55;115846;1209;62599;-79
2021/04/20 10:09:38;;;;;;;10.40;4.25;;;;;;;14.84;51.35;101012.00;115920;1212;62123;-79
2021/04/20 10:12:18;;;;;;;5.95;3.80;;;;;;;14.89;49.66;101004.22;115909;1209;62707;-78
2021/04/20 10:14:53;;;;;;;7.67;3.77;;;;;;;14.91;50.89;101007.52;115854;1209;62853;-77
2021/04/20 10:17:29;;;;;;;8.87;4.20;;;;;;;14.94;50.77;101001.80;115901;1209;63041;-78
2021/04/20 10:20:13;;;;;;;6.97;2.80;;;;;;;15.02;49.71;100998.13;115851;1211;62164;-78
2021/04/20 10:23:04;;;;;;;6.18;2.90;;;;;;;15.11;50.81;100996.97;115826;1209;62908;-78
2021/04/20 10:26:05;;;;;;;8.57;3.37;;;;;;;15.29;50.74;100999.09;115876;1209;62345;-78
2021/04/20 10:28:44;;;;;;;5.55;2.85;;;;;;;15.42;49.37;100990.31;115880;1209;63180;-79
2021/04/20 10:31:17;;;;;;;10.23;3.90;;;;;;;15.52;48.86;100984.60;115858;1209;62426;-80
2021/04/20 10:33:49;;;;;;;7.00;3.23;;;;;;;15.61;48.67;100984.20;115841;1210;63193;-79
2021/04/20 10:36:20;;;;;;;8.57;3.37;;;;;;;15.74;48.60;100971.93;115869;1209;62695;-78
2021/04/20 10:38:48;;;;;;;7.15;3.80;;;;;;;15.82;48.49;100977.09;115772;1212;62434;-79
2021/04/20 10:41:29;;;;;;;5.60;3.25;;;;;;;15.96;48.22;100972.58;115892;1209;62412;-78
2021/04/20 10:43:58;;;;;;;7.07;3.63;;;;;;;16.12;48.44;100971.38;115898;1210;62460;-77
2021/04/20 10:46:31;;;;;;;5.70;2.90;;;;;;;16.19;47.41;100970.34;115868;1209;62243;-76
2021/04/20 10:48:59;;;;;;;6.43;3.97;;;;;;;16.29;47.93;100962.73;115918;1209;63047;-78
2021/04/20 10:51:32;;;;;;;7.87;2.70;;;;;;;16.36;46.56;100960.05;115870;1209;62370;-77
2021/04/20 10:54:00;;;;;;;6.23;2.83;;;;;;;16.40;48.05;100960.46;115877;1209;62419;-78
2021/04/20 10:56:30;;;;;;;9.43;4.27;;;;;;;16.46;48.13;100956.96;115800;1209;62325;-77
2021/04/20 10:59:03;;;;;;;8.60;4.65;;;;;;;16.44;46.96;100957.16;115946;1209;62580;-77
2021/04/20 11:01:31;;;;;;;5.93;3.50;;;;;;;16.38;46.97;100947.27;115848;1211;62293;-78
2021/04/20 11:04:00;;;;;;;10.50;3.97;;;;;;;16.40;46.05;100947.08;115846;1209;62420;-78
2021/04/20 11:07:04;;;;;;;9.00;3.70;;;;;;;16.44;45.00;100950.98;115879;1209;63049;-78
2021/04/20 11:09:31;;;;;;;6.40;3.30;;;;;;;16.46;45.31;100954.28;115820;1212;62058;-79
2021/04/20 11:11:59;;;;;;;5.70;3.03;;;;;;;16.60;46.18;100941.72;115865;1212;62165;-79
2021/04/20 11:14:37;;;;;;;7.03;3.60;;;;;;;16.78;46.72;100943.73;115876;1212;62911;-78
2021/04/20 11:17:05;;;;;;;5.27;3.43;;;;;;;16.89;45.99;100941.27;115833;1209;62382;-78
2021/04/20 11:19:36;;;;;;;8.33;3.70;;;;;;;16.96;45.64;100935.88;115825;1209;62704;-78
2021/04/20 11:22:04;;;;;;;6.53;3.90;;;;;;;17.04;45.42;100938.33;115818;1209;62435;-78
2021/04/20 11:24:36;;;;;;;5.13;3.30;;;;;;;17.05;41.66;100939.97;115806;1209;62352;-79
2021/04/20 11:27:10;;;;;;;8.50;3.73;;;;;;;17.08;42.51;100939.52;115840;1209;62860;-79
2021/04/20 11:29:46;;;;;;;5.93;3.65;;;;;;;17.13;43.24;100930.88;115873;1212;62381;-78
2021/04/20 11:32:18;;;;;;;4.87;3.13;;;;;;;17.14;40.88;100937.05;115873;1209;62484;-78
2021/04/20 11:34:48;;;;;;;10.53;4.50;;;;;;;17.14;42.39;100948.59;115835;1209;62273;-77
2021/04/20 11:37:22;;;;;;;11.40;4.43;;;;;;;17.15;40.79;100933.32;115891;1212;62370;-78
2021/04/20 11:39:53;;;;;;;8.63;3.40;;;;;;;17.16;40.56;100932.30;115868;1209;64387;-78
2021/04/20 11:42:32;;;;;;;7.47;3.43;;;;;;;17.29;40.83;100929.55;115805;1211;62343;-77